createdAt,value
2017-08-26T00:00:48.544Z,73.70
2017-08-26T00:03:16.065Z,73.60
2017-08-26T00:05:43.584Z,73.70
2017-08-26T00:08:11.104Z,73.70
2017-08-26T00:10:38.603Z,73.70
2017-08-26T00:13:06.088Z,73.70
2017-08-26T00:15:33.606Z,73.80
2017-08-26T00:18:01.100Z,73.80
2017-08-26T00:20:28.619Z,73.90
2017-08-26T00:22:56.108Z,73.90
2017-08-26T00:25:23.597Z,73.90
2017-08-26T00:27:51.105Z,74.00
2017-08-26T00:30:18.596Z,74.00
2017-08-26T00:32:46.131Z,74.00
2017-08-26T00:35:13.616Z,74.20
2017-08-26T00:37:41.109Z,74.10
2017-08-26T00:40:08.627Z,74.20
2017-08-26T00:42:36.112Z,74.20
2017-08-26T00:45:03.672Z,74.00
2017-08-26T00:47:31.152Z,74.20
2017-08-26T00:49:58.637Z,74.20
2017-08-26T00:52:26.165Z,74.30
2017-08-26T00:54:53.803Z,74.30
2017-08-26T00:57:21.291Z,74.30
2017-08-26T00:59:48.828Z,74.30
2017-08-26T01:02:16.314Z,74.30
2017-08-26T01:04:45.032Z,74.30
2017-08-26T01:10:07.497Z,74.30
2017-08-26T01:12:35.020Z,74.40
2017-08-26T01:15:02.528Z,74.40
2017-08-26T01:17:30.047Z,74.50
2017-08-26T01:19:57.534Z,74.50
2017-08-26T01:22:25.048Z,74.40
2017-08-26T01:24:52.535Z,74.40
2017-08-26T01:27:20.066Z,74.50
2017-08-26T01:29:47.598Z,74.40
2017-08-26T01:32:15.099Z,74.50
2017-08-26T01:34:42.590Z,74.50
2017-08-26T01:37:10.113Z,74.50
2017-08-26T01:39:37.606Z,74.50
2017-08-26T01:42:05.106Z,74.50
2017-08-26T01:44:32.620Z,74.50
2017-08-26T01:47:00.107Z,74.40
2017-08-26T01:49:27.619Z,74.60
2017-08-26T01:51:55.155Z,74.50
2017-08-26T01:54:22.649Z,74.60
2017-08-26T01:56:50.139Z,74.60
2017-08-26T01:59:17.671Z,74.60
2017-08-26T02:01:45.155Z,74.60
2017-08-26T02:04:12.635Z,74.60
2017-08-26T02:06:40.152Z,74.60
2017-08-26T02:09:07.640Z,74.70
2017-08-26T02:11:35.168Z,74.70
2017-08-26T02:14:02.702Z,74.70
2017-08-26T02:16:30.187Z,74.70
2017-08-26T02:18:57.679Z,74.70
2017-08-26T02:21:25.222Z,74.70
2017-08-26T02:23:52.709Z,74.80
2017-08-26T02:26:20.200Z,74.80
2017-08-26T02:28:47.724Z,74.90
2017-08-26T02:31:15.211Z,74.90
2017-08-26T02:33:42.732Z,74.90
2017-08-26T02:36:10.215Z,74.70
2017-08-26T02:38:37.736Z,74.80
2017-08-26T02:41:05.232Z,74.80
2017-08-26T02:43:32.751Z,74.80
2017-08-26T02:46:00.271Z,74.80
2017-08-26T02:48:27.796Z,74.90
2017-08-26T02:50:55.280Z,74.90
2017-08-26T02:53:22.777Z,74.90
2017-08-26T02:55:50.297Z,74.90
2017-08-26T02:58:17.815Z,75.00
2017-08-26T03:00:45.312Z,74.90
2017-08-26T03:03:12.794Z,75.00
2017-08-26T03:05:40.306Z,74.90
2017-08-26T03:08:07.845Z,74.70
2017-08-26T03:10:35.318Z,74.80
2017-08-26T03:13:03.757Z,74.90
2017-08-26T03:15:31.276Z,74.90
2017-08-26T03:17:58.760Z,75.00
2017-08-26T03:20:26.289Z,75.00
2017-08-26T03:22:53.774Z,75.00
2017-08-26T03:25:21.269Z,75.00
2017-08-26T03:27:48.802Z,75.00
2017-08-26T03:30:16.288Z,75.00
2017-08-26T03:32:43.798Z,75.10
2017-08-26T03:35:11.285Z,75.10
2017-08-26T03:37:47.748Z,75.00
2017-08-26T03:40:15.233Z,75.10
2017-08-26T03:42:42.751Z,75.10
2017-08-26T03:45:10.244Z,75.00
2017-08-26T03:47:37.788Z,75.10
2017-08-26T03:50:05.314Z,75.10
2017-08-26T03:52:32.802Z,75.00
2017-08-26T03:55:00.367Z,75.10
2017-08-26T03:57:27.868Z,75.30
2017-08-26T03:59:55.357Z,75.20
2017-08-26T04:02:22.868Z,75.20
2017-08-26T04:04:50.357Z,75.20
2017-08-26T04:07:17.876Z,75.20
2017-08-26T04:09:45.388Z,75.20
2017-08-26T04:12:12.875Z,75.20
2017-08-26T04:14:40.401Z,75.20
2017-08-26T04:17:07.944Z,75.20
2017-08-26T04:19:35.428Z,75.20
2017-08-26T04:22:02.911Z,75.20
2017-08-26T04:24:30.432Z,75.30
2017-08-26T04:26:57.951Z,75.30
2017-08-26T04:29:25.513Z,75.30
2017-08-26T04:31:53.006Z,75.40
2017-08-26T04:34:20.536Z,75.30
2017-08-26T04:36:48.028Z,75.50
2017-08-26T04:39:15.517Z,75.50
2017-08-26T04:41:43.037Z,75.60
2017-08-26T04:44:10.535Z,75.50
2017-08-26T04:46:38.048Z,75.60
2017-08-26T04:49:05.532Z,75.60
2017-08-26T04:51:33.053Z,75.60
2017-08-26T04:54:00.540Z,75.60
2017-08-26T04:56:28.026Z,75.60
2017-08-26T04:58:55.556Z,75.60
2017-08-26T05:01:23.046Z,75.60
2017-08-26T05:03:50.536Z,75.70
2017-08-26T05:06:18.055Z,75.70
2017-08-26T05:08:45.544Z,75.80
2017-08-26T05:11:13.028Z,75.70
2017-08-26T05:13:40.555Z,75.60
2017-08-26T05:16:08.044Z,75.80
2017-08-26T05:18:35.527Z,75.80
2017-08-26T05:21:03.056Z,75.70
2017-08-26T05:23:30.557Z,75.70
2017-08-26T05:25:58.044Z,75.60
2017-08-26T05:28:25.561Z,75.60
2017-08-26T05:30:53.043Z,75.70
2017-08-26T05:33:20.792Z,75.70
2017-08-26T05:35:48.277Z,75.70
2017-08-26T05:38:15.791Z,75.60
2017-08-26T05:40:43.318Z,75.60
2017-08-26T05:43:10.804Z,75.60
2017-08-26T05:45:38.287Z,75.60
2017-08-26T05:48:05.809Z,75.50
2017-08-26T05:50:33.348Z,75.60
2017-08-26T05:53:00.832Z,75.70
2017-08-26T05:55:28.328Z,75.70
2017-08-26T05:57:55.859Z,76.00
2017-08-26T06:00:23.352Z,75.90
2017-08-26T06:02:50.849Z,75.80
2017-08-26T06:05:18.385Z,76.00
2017-08-26T06:07:45.895Z,75.90
2017-08-26T06:10:13.384Z,76.00
2017-08-26T06:12:40.919Z,76.00
2017-08-26T06:15:08.404Z,76.00
2017-08-26T06:17:35.900Z,76.00
2017-08-26T06:20:03.423Z,75.90
2017-08-26T06:22:30.956Z,76.00
2017-08-26T06:24:58.448Z,75.90
2017-08-26T06:27:25.935Z,75.90
2017-08-26T06:29:53.455Z,76.00
2017-08-26T06:32:20.972Z,76.20
2017-08-26T06:34:48.509Z,76.10
2017-08-26T06:37:15.996Z,76.20
2017-08-26T06:39:43.491Z,76.20
2017-08-26T06:42:11.007Z,76.20
2017-08-26T06:44:38.492Z,76.20
2017-08-26T06:47:06.031Z,76.10
2017-08-26T06:49:33.516Z,75.80
2017-08-26T06:52:01.004Z,75.30
2017-08-26T06:54:28.523Z,75.20
2017-08-26T06:56:56.017Z,73.70
2017-08-26T06:59:23.544Z,72.50
2017-08-26T07:01:51.026Z,71.80
2017-08-26T07:04:18.511Z,71.50
2017-08-26T07:06:46.031Z,71.30
2017-08-26T07:09:13.553Z,70.40
2017-08-26T07:11:41.042Z,70.20
2017-08-26T07:14:08.528Z,70.10
2017-08-26T07:16:36.047Z,68.90
2017-08-26T07:19:03.533Z,68.80
2017-08-26T07:21:31.055Z,68.70
2017-08-26T07:23:58.551Z,68.10
2017-08-26T07:26:26.074Z,67.90
2017-08-26T07:28:53.577Z,68.00
2017-08-26T07:31:21.069Z,67.90
2017-08-26T07:33:48.588Z,67.90
2017-08-26T07:36:16.076Z,68.00
2017-08-26T07:38:43.600Z,68.40
2017-08-26T07:41:11.160Z,68.90
2017-08-26T07:43:38.695Z,67.70
2017-08-26T07:46:06.179Z,67.00
2017-08-26T07:48:33.669Z,66.70
2017-08-26T07:51:01.180Z,66.20
2017-08-26T07:53:28.668Z,66.00
2017-08-26T07:55:56.200Z,65.20
2017-08-26T07:58:23.687Z,65.10
2017-08-26T08:00:51.203Z,65.10
2017-08-26T08:03:18.735Z,64.40
2017-08-26T08:05:46.225Z,64.30
2017-08-26T08:08:13.716Z,64.20
2017-08-26T08:13:15.092Z,64.10
2017-08-26T08:15:42.616Z,63.70
2017-08-26T08:18:10.103Z,63.00
2017-08-26T08:20:37.629Z,63.10
2017-08-26T08:23:05.111Z,63.20
2017-08-26T08:25:32.603Z,63.10
2017-08-26T08:28:00.136Z,63.20
2017-08-26T08:30:27.623Z,63.00
2017-08-26T08:32:55.111Z,62.80
2017-08-26T08:35:22.628Z,62.30
2017-08-26T08:37:50.111Z,62.50
2017-08-26T08:40:17.628Z,62.70
2017-08-26T08:42:45.116Z,62.30
2017-08-26T08:45:12.652Z,62.60
2017-08-26T08:47:40.140Z,62.80
2017-08-26T08:50:07.636Z,62.70
2017-08-26T08:52:35.164Z,63.10
2017-08-26T08:55:02.657Z,62.60
2017-08-26T08:57:30.149Z,61.60
2017-08-26T08:59:57.678Z,61.70
2017-08-26T09:02:25.169Z,61.70
2017-08-26T09:04:52.680Z,61.90
2017-08-26T09:07:20.167Z,62.10
2017-08-26T09:09:47.691Z,62.10
2017-08-26T09:12:15.179Z,61.80
2017-08-26T09:14:42.668Z,61.90
2017-08-26T09:17:10.196Z,62.00
2017-08-26T09:19:37.764Z,62.10
2017-08-26T09:22:05.247Z,61.60
2017-08-26T09:24:32.731Z,61.50
2017-08-26T09:27:00.256Z,61.50
2017-08-26T09:29:27.745Z,60.80
2017-08-26T09:31:55.267Z,61.20
2017-08-26T09:34:22.753Z,61.20
2017-08-26T09:36:50.247Z,61.40
2017-08-26T09:39:17.763Z,61.60
2017-08-26T09:41:45.292Z,61.80
2017-08-26T09:44:12.776Z,61.60
2017-08-26T09:46:40.275Z,61.50
2017-08-26T09:49:07.784Z,60.90
2017-08-26T09:51:35.300Z,61.30
2017-08-26T09:54:02.831Z,60.80
2017-08-26T09:56:30.324Z,60.90
2017-08-26T09:58:57.817Z,61.10
2017-08-26T10:01:25.352Z,60.60
2017-08-26T10:03:52.858Z,60.60
2017-08-26T10:06:20.346Z,60.40
2017-08-26T10:08:47.860Z,60.30
2017-08-26T10:11:15.382Z,60.50
2017-08-26T10:13:42.896Z,60.90
2017-08-26T10:16:10.420Z,61.00
2017-08-26T10:18:37.911Z,60.80
2017-08-26T10:21:05.431Z,61.00
2017-08-26T10:23:32.926Z,61.10
2017-08-26T10:26:00.465Z,61.20
2017-08-26T10:28:27.957Z,61.30
2017-08-26T10:30:55.447Z,61.20
2017-08-26T10:33:22.981Z,61.50
2017-08-26T10:35:50.475Z,60.60
2017-08-26T10:38:17.989Z,60.00
2017-08-26T10:40:45.510Z,59.60
2017-08-26T10:43:13.033Z,59.60
2017-08-26T10:45:40.534Z,59.60
2017-08-26T10:48:08.098Z,59.50
2017-08-26T10:50:35.811Z,59.60
2017-08-26T10:53:03.291Z,59.40
2017-08-26T10:55:30.829Z,58.80
2017-08-26T10:57:58.311Z,57.70
2017-08-26T11:00:25.804Z,57.60
2017-08-26T11:02:53.316Z,55.30
2017-08-26T11:05:20.803Z,55.50
2017-08-26T11:07:48.372Z,55.70
2017-08-26T11:10:15.967Z,53.90
2017-08-26T11:12:43.507Z,54.00
2017-08-26T11:15:10.988Z,53.90
2017-08-26T11:17:38.527Z,53.40
2017-08-26T11:20:06.045Z,51.50
2017-08-26T11:22:33.578Z,50.10
2017-08-26T11:25:01.062Z,48.40
2017-08-26T11:27:28.701Z,48.70
2017-08-26T11:29:56.219Z,47.90
2017-08-26T11:32:23.757Z,47.20
2017-08-26T11:34:51.245Z,45.60
2017-08-26T11:37:18.759Z,45.90
2017-08-26T11:39:46.264Z,45.50
2017-08-26T11:42:13.808Z,45.90
2017-08-26T11:44:41.284Z,45.60
2017-08-26T11:47:08.791Z,46.00
2017-08-26T11:49:36.280Z,46.20
2017-08-26T11:52:03.812Z,46.30
2017-08-26T11:54:31.302Z,46.10
2017-08-26T11:56:58.803Z,46.30
2017-08-26T11:59:26.321Z,46.00
2017-08-26T12:01:53.839Z,46.40
2017-08-26T12:04:21.325Z,46.40
2017-08-26T12:06:48.865Z,45.70
2017-08-26T12:09:16.370Z,44.90
2017-08-26T12:11:43.864Z,45.00
2017-08-26T12:14:11.563Z,45.00
2017-08-26T12:16:39.089Z,45.20
2017-08-26T12:19:06.577Z,44.40
2017-08-26T12:21:34.108Z,44.70
2017-08-26T12:24:01.614Z,45.10
2017-08-26T12:26:29.218Z,45.30
2017-08-26T12:28:56.737Z,44.80
2017-08-26T12:31:24.248Z,44.30
2017-08-26T12:33:51.758Z,44.50
2017-08-26T12:36:19.280Z,43.20
2017-08-26T12:38:46.780Z,42.90
2017-08-26T12:41:22.097Z,42.90
2017-08-26T12:44:01.636Z,43.70
2017-08-26T12:46:31.167Z,43.80
2017-08-26T12:49:01.270Z,43.40
2017-08-26T12:51:32.897Z,41.70
2017-08-26T12:54:12.043Z,41.50
2017-08-26T12:56:39.661Z,42.10
2017-08-26T12:59:07.187Z,42.30
2017-08-26T13:01:34.700Z,40.80
2017-08-26T13:04:02.204Z,40.70
2017-08-26T13:06:29.697Z,41.10
2017-08-26T13:08:57.219Z,41.70
2017-08-26T13:11:24.705Z,42.00
2017-08-26T13:13:52.254Z,41.90
2017-08-26T13:16:19.771Z,42.10
2017-08-26T13:18:47.257Z,42.30
2017-08-26T13:21:14.787Z,42.30
2017-08-26T13:23:42.289Z,42.50
2017-08-26T13:26:09.820Z,42.40
2017-08-26T13:28:37.308Z,41.90
2017-08-26T13:31:04.800Z,41.00
2017-08-26T13:33:32.327Z,40.90
2017-08-26T13:35:59.824Z,39.40
2017-08-26T13:38:27.347Z,40.00
2017-08-26T13:40:54.876Z,40.20
2017-08-26T13:43:22.363Z,39.10
2017-08-26T13:45:49.849Z,39.30
2017-08-26T13:48:17.381Z,39.80
2017-08-26T13:50:44.873Z,39.00
2017-08-26T13:53:12.368Z,39.40
2017-08-26T13:55:39.898Z,39.50
2017-08-26T13:58:07.382Z,39.30
2017-08-26T14:00:34.867Z,39.30
2017-08-26T14:03:02.392Z,39.80
2017-08-26T14:05:29.880Z,40.00
2017-08-26T14:07:57.370Z,40.40
2017-08-26T14:10:24.909Z,40.50
2017-08-26T14:12:52.399Z,39.90
2017-08-26T14:15:19.892Z,39.80
2017-08-26T14:17:47.413Z,40.00
2017-08-26T14:20:14.955Z,39.80
2017-08-26T14:22:42.454Z,39.50
2017-08-26T14:25:09.949Z,39.50
2017-08-26T14:27:37.468Z,39.60
2017-08-26T14:30:05.220Z,39.60
2017-08-26T14:32:32.721Z,39.80
2017-08-26T14:35:00.208Z,39.90
2017-08-26T14:37:27.768Z,40.30
2017-08-26T14:39:55.254Z,40.10
2017-08-26T14:42:22.767Z,39.90
2017-08-26T14:44:50.317Z,39.60
2017-08-26T14:47:17.884Z,38.90
2017-08-26T14:49:45.372Z,37.80
2017-08-26T14:52:12.919Z,37.90
2017-08-26T14:54:40.407Z,38.00
2017-08-26T14:57:07.911Z,37.80
2017-08-26T14:59:35.438Z,37.20
2017-08-26T15:02:02.932Z,37.40
2017-08-26T15:04:30.453Z,37.80
2017-08-26T15:06:57.951Z,37.90
2017-08-26T15:09:25.508Z,37.70
2017-08-26T15:11:53.011Z,37.70
2017-08-26T15:14:20.495Z,37.30
2017-08-26T15:16:48.056Z,36.90
2017-08-26T15:19:15.575Z,35.60
2017-08-26T15:21:43.057Z,35.30
2017-08-26T15:24:10.625Z,35.40
2017-08-26T15:26:38.106Z,35.40
2017-08-26T15:29:05.595Z,35.70
2017-08-26T15:31:33.127Z,35.80
2017-08-26T15:34:00.613Z,35.80
2017-08-26T15:36:28.108Z,35.60
2017-08-26T15:38:55.615Z,35.80
2017-08-26T15:41:23.104Z,35.00
2017-08-26T15:43:50.640Z,34.80
2017-08-26T15:46:18.184Z,34.30
2017-08-26T15:48:45.694Z,33.60
2017-08-26T15:51:13.183Z,33.40
2017-08-26T15:53:40.701Z,33.10
2017-08-26T15:56:08.261Z,32.10
2017-08-26T15:58:35.759Z,31.70
2017-08-26T16:01:03.253Z,31.00
2017-08-26T16:03:30.795Z,30.70
2017-08-26T16:05:58.293Z,30.60
2017-08-26T16:08:25.786Z,30.10
2017-08-26T16:10:53.307Z,30.00
2017-08-26T16:13:20.831Z,30.10
2017-08-26T16:15:48.520Z,29.90
2017-08-26T16:18:16.061Z,29.90
2017-08-26T16:20:43.564Z,29.80
2017-08-26T16:23:11.061Z,29.90
2017-08-26T16:25:38.612Z,30.00
2017-08-26T16:28:06.102Z,29.60
2017-08-26T16:30:33.593Z,29.60
2017-08-26T16:33:01.118Z,30.10
2017-08-26T16:35:28.617Z,31.20
2017-08-26T16:37:56.144Z,32.60
2017-08-26T16:40:23.688Z,34.50
2017-08-26T16:42:51.180Z,35.80
2017-08-26T16:45:18.678Z,36.50
2017-08-26T16:47:46.252Z,37.60
2017-08-26T16:50:13.744Z,38.90
2017-08-26T16:52:41.240Z,40.00
2017-08-26T16:55:08.768Z,41.10
2017-08-26T16:57:36.259Z,42.10
2017-08-26T17:00:03.801Z,43.10
2017-08-26T17:02:31.293Z,44.20
2017-08-26T17:04:58.813Z,45.00
2017-08-26T17:07:26.349Z,45.60
2017-08-26T17:09:53.843Z,46.20
2017-08-26T17:12:21.382Z,46.70
2017-08-26T17:14:48.879Z,47.20
2017-08-26T17:17:16.427Z,47.70
2017-08-26T17:19:43.916Z,48.10
2017-08-26T17:22:11.413Z,48.40
2017-08-26T17:24:39.023Z,48.90
2017-08-26T17:27:07.206Z,49.20
2017-08-26T17:29:34.992Z,49.60
2017-08-26T17:32:05.579Z,50.10
2017-08-26T17:34:33.462Z,50.70
2017-08-26T17:37:00.994Z,50.90
2017-08-26T17:39:28.511Z,51.20
2017-08-26T17:41:56.008Z,51.40
2017-08-26T17:44:23.558Z,51.60
2017-08-26T17:46:51.051Z,52.00
2017-08-26T17:49:18.539Z,52.20
2017-08-26T17:51:46.063Z,52.40
2017-08-26T17:54:13.588Z,52.50
2017-08-26T17:56:41.078Z,52.60
2017-08-26T17:59:08.627Z,52.70
2017-08-26T18:01:36.119Z,53.00
2017-08-26T18:04:03.608Z,53.20
2017-08-26T18:06:31.336Z,53.50
2017-08-26T18:08:58.824Z,53.50
2017-08-26T18:11:26.345Z,53.80
2017-08-26T18:13:53.867Z,53.90
2017-08-26T18:16:21.356Z,54.00
2017-08-26T18:18:48.868Z,54.20
2017-08-26T18:21:16.389Z,54.20
2017-08-26T18:23:43.929Z,54.40
2017-08-26T18:26:11.428Z,54.20
2017-08-26T18:28:38.916Z,54.30
2017-08-26T18:31:06.456Z,54.40
2017-08-26T18:33:33.947Z,54.60
2017-08-26T18:36:01.439Z,54.60
2017-08-26T18:38:28.959Z,54.70
2017-08-26T18:40:56.459Z,54.80
2017-08-26T18:43:23.969Z,54.90
2017-08-26T18:45:51.507Z,55.10
2017-08-26T18:48:19.000Z,55.20
2017-08-26T18:50:46.492Z,55.40
2017-08-26T18:53:14.004Z,55.30
2017-08-26T18:55:42.919Z,55.40
2017-08-26T18:58:10.532Z,55.40
2017-08-26T19:00:38.016Z,55.40
2017-08-26T19:03:05.549Z,55.60
2017-08-26T19:05:33.034Z,55.60
2017-08-26T19:08:00.566Z,55.70
2017-08-26T19:10:28.202Z,55.90
2017-08-26T19:12:55.860Z,56.00
2017-08-26T19:15:23.398Z,55.90
2017-08-26T19:17:50.884Z,56.00
2017-08-26T19:20:18.388Z,56.10
2017-08-26T19:22:45.908Z,56.10
2017-08-26T19:25:13.968Z,56.20
2017-08-26T19:27:41.507Z,56.30
2017-08-26T19:30:10.281Z,56.40
2017-08-26T19:32:38.583Z,56.50
2017-08-26T19:35:07.489Z,56.40
2017-08-26T19:37:35.125Z,56.60
2017-08-26T19:40:04.342Z,56.70
2017-08-26T19:42:31.905Z,56.80
2017-08-26T19:44:59.916Z,57.00
2017-08-26T19:47:28.098Z,57.00
2017-08-26T19:49:56.135Z,57.10
2017-08-26T19:52:26.672Z,57.30
2017-08-26T19:55:00.869Z,57.30
2017-08-26T19:57:31.994Z,57.60
2017-08-26T20:00:09.254Z,57.60
2017-08-26T20:02:39.484Z,57.50
2017-08-26T20:05:08.091Z,57.60
2017-08-26T20:07:35.580Z,57.70
2017-08-26T20:10:03.069Z,57.80
2017-08-26T20:12:30.675Z,57.80
2017-08-26T20:14:58.181Z,58.00
2017-08-26T20:17:25.764Z,58.20
2017-08-26T20:19:53.296Z,58.20
2017-08-26T20:22:20.781Z,58.10
2017-08-26T20:24:48.272Z,58.20
2017-08-26T20:27:15.804Z,58.20
2017-08-26T20:29:43.299Z,58.10
2017-08-26T20:32:10.804Z,58.10
2017-08-26T20:34:38.319Z,58.10
2017-08-26T20:37:05.824Z,58.30
2017-08-26T20:39:33.364Z,58.30
2017-08-26T20:42:00.852Z,58.30
2017-08-26T20:44:28.343Z,58.30
2017-08-26T20:46:55.859Z,58.50
2017-08-26T20:49:23.371Z,58.60
2017-08-26T20:51:51.506Z,58.60
2017-08-26T20:54:19.056Z,58.70
2017-08-26T20:56:46.543Z,58.80
2017-08-26T20:59:14.032Z,58.90
2017-08-26T21:01:41.892Z,59.00
2017-08-26T21:04:09.376Z,59.10
2017-08-26T21:06:37.096Z,59.20
2017-08-26T21:09:04.586Z,59.40
2017-08-26T21:11:32.080Z,59.20
2017-08-26T21:13:59.621Z,59.40
2017-08-26T21:16:27.104Z,59.40
2017-08-26T21:18:54.652Z,59.50
2017-08-26T21:21:22.148Z,59.50
2017-08-26T21:23:49.974Z,59.50
2017-08-26T21:26:17.560Z,59.60
2017-08-26T21:28:47.848Z,59.70
2017-08-26T21:31:15.393Z,59.80
2017-08-26T21:33:42.879Z,59.90
2017-08-26T21:36:10.371Z,60.00
2017-08-26T21:38:37.894Z,60.00
2017-08-26T21:41:05.423Z,60.20
2017-08-26T21:43:32.912Z,60.80
2017-08-26T21:46:00.400Z,60.10
2017-08-26T21:48:27.936Z,60.30
2017-08-26T21:50:55.427Z,60.40
2017-08-26T21:53:22.915Z,60.50
2017-08-26T21:55:50.543Z,60.60
2017-08-26T21:58:18.140Z,60.60
2017-08-26T22:00:45.625Z,60.60
2017-08-26T22:03:13.115Z,60.80
2017-08-26T22:05:40.655Z,60.90
2017-08-26T22:08:08.152Z,61.00
2017-08-26T22:10:35.636Z,61.20
2017-08-26T22:13:03.231Z,61.20
2017-08-26T22:15:30.817Z,61.50
2017-08-26T22:17:58.311Z,61.60
2017-08-26T22:20:25.854Z,61.60
2017-08-26T22:22:53.340Z,62.30
2017-08-26T22:25:20.835Z,61.80
2017-08-26T22:27:48.355Z,62.60
2017-08-26T22:30:15.848Z,62.20
2017-08-26T22:32:43.454Z,62.10
2017-08-26T22:35:10.948Z,62.10
2017-08-26T22:37:38.438Z,62.30
2017-08-26T22:40:05.989Z,62.80
2017-08-26T22:42:33.479Z,62.40
2017-08-26T22:45:00.964Z,62.50
2017-08-26T22:47:28.590Z,62.50
2017-08-26T22:49:56.169Z,62.40
2017-08-26T22:52:23.660Z,62.40
2017-08-26T22:54:51.160Z,62.40
2017-08-26T22:57:18.649Z,62.60
2017-08-26T22:59:46.208Z,62.70
2017-08-26T23:02:13.691Z,62.70
2017-08-26T23:04:41.181Z,62.80
2017-08-26T23:07:08.749Z,62.90
2017-08-26T23:09:36.239Z,62.90
2017-08-26T23:12:03.727Z,63.00
2017-08-26T23:14:31.255Z,63.10
2017-08-26T23:16:59.620Z,63.20
2017-08-26T23:19:27.185Z,63.30
2017-08-26T23:21:55.005Z,63.40
2017-08-26T23:24:22.493Z,63.40
2017-08-26T23:26:50.050Z,63.60
2017-08-26T23:29:17.636Z,63.70
2017-08-26T23:31:45.126Z,63.70
2017-08-26T23:34:12.624Z,63.70
2017-08-26T23:36:40.152Z,63.70
2017-08-26T23:39:07.645Z,63.70
2017-08-26T23:41:35.166Z,63.80
2017-08-26T23:44:02.655Z,63.80
2017-08-26T23:46:30.191Z,63.80
2017-08-26T23:48:57.680Z,63.90
2017-08-26T23:51:25.371Z,64.00
2017-08-26T23:53:52.975Z,64.00
2017-08-26T23:56:20.503Z,64.00
2017-08-26T23:58:47.988Z,64.00
